Danville, IL

12:54 AM CST on February 12, 2016 (GMT -0600)
Danville Area Community College | | Change Station
CLOSE
Current Station
Personal Weather Station
Location: Danville, IL
Elevation: 656 ft
Nearby Weather Stations

Elev 656 ft 40.13 °N, 87.59 °W | Updated 18 seconds ago

Overcast
Overcast
20.5 °F
Feels Like 20 °F
N
0.0
Wind Variable Wind from North
Gusts 0.0 mph

Today
High -- | Low -- °F
--% Chance of Precip.
Yesterday
High -- | Low -- °F
Precip. -- in
Pressure 30.23 in
Visibility 10.0 miles
Clouds Mostly Cloudy 6000 ft
Overcast 8000 ft
Windchill 20 °F
Dew Point 12 °F
Humidity 68%
Rainfall 0.00 in
Snow Depth Not available.
6:47 AM 5:22 PM
Waxing Crescent, 18% visible
METAR KDNV 120635Z AUTO 00000KT 10SM BKN060 OVC080 M07/M11 A3023 RMK AO2 T10751115
Pressure 30.23 in
Visibility 10.0 miles
Clouds Mostly Cloudy 6000 ft
Overcast 8000 ft
Windchill 20 °F
Dew Point 12 °F
Humidity 68%
Rainfall 0.00 in
Snow Depth Not available.
6:47 AM 5:22 PM
Waxing Crescent, 18% visible
METAR KDNV 120635Z AUTO 00000KT 10SM BKN060 OVC080 M07/M11 A3023 RMK AO2 T10751115

10-Day Weather Forecast

Almanac

Astronomy

Feb. 12, 2016 Rise Set
Actual Time
Civil Twilight
Nautical Twilight
Astronomical Twilight
Moon
Length of Visible Light
Length of Day
Tomorrow will be .
, % of the Moon is Illuminated

Today's Extremes

State Highs State Lows

Community

WunderPhotos

Upload Photos

1,892,276 photos uploaded!

WunderBlog® & News

Nearby

Air Quality

  Air Quality AQ Index Pollutant
Not available.

Snow Depth

Station Depth Elevation

Earthquake Activity

City Distance Mag. Time & Date
Minimum magnitude displayed is 2.5.

Coastal Water Temperatures

Place Temperature

Stations

Nearby Weather Stations

Station Location Temp. Windchill Dew Point Humidity Wind Precip. Elev Updated Type
                   

Watches & Warnings

There are currently no watches in effect.